sim
Sign-in with your pilot id or email,
or register
Callsign
Passwort

Schedule Details

Flight Number: DLH2277 (2)
Departure: Nice Cote d'Azur Airport (LFMN) at 07:00
Arrival: Munich Airport (EDDM) at 08:25
Route: Lufthansa Passenger Schedule. Enter filed route here before submitting Pirep.

Weather Information
Getting current METAR information for LFMN 240730Z 32004KT 280V360 CAVOK 22/13 Q1010 NOSIG
Getting current METAR information for EDDM 240720Z 24008KT 9999 FEW035 BKN080 15/13 Q1010 NOSIG

Schedule Frequency

Route Map